sensor_id;sensor_type;location;lat;lon;timestamp;temperature;humidity
69281;SHT31;56392;51.082;17.080;2023-02-28T00:00:44;1.54;71.60
69281;SHT31;56392;51.082;17.080;2023-02-28T00:06:09;1.60;69.97
69281;SHT31;56392;51.082;17.080;2023-02-28T00:11:33;1.55;68.53
69281;SHT31;56392;51.082;17.080;2023-02-28T00:17:00;1.65;69.45
69281;SHT31;56392;51.082;17.080;2023-02-28T00:22:23;1.65;71.33
69281;SHT31;56392;51.082;17.080;2023-02-28T00:27:47;1.68;69.88
69281;SHT31;56392;51.082;17.080;2023-02-28T00:33:12;1.67;71.10
69281;SHT31;56392;51.082;17.080;2023-02-28T00:38:35;1.67;70.49
69281;SHT31;56392;51.082;17.080;2023-02-28T00:43:58;1.68;70.20
69281;SHT31;56392;51.082;17.080;2023-02-28T00:49:23;1.64;72.28
69281;SHT31;56392;51.082;17.080;2023-02-28T00:54:46;1.54;72.22
69281;SHT31;56392;51.082;17.080;2023-02-28T01:00:10;1.58;72.34
69281;SHT31;56392;51.082;17.080;2023-02-28T01:05:35;1.57;72.47
69281;SHT31;56392;51.082;17.080;2023-02-28T01:11:07;1.60;72.21
69281;SHT31;56392;51.082;17.080;2023-02-28T01:16:31;1.58;71.76
69281;SHT31;56392;51.082;17.080;2023-02-28T01:21:56;1.51;71.99
69281;SHT31;56392;51.082;17.080;2023-02-28T01:27:19;1.57;71.64
69281;SHT31;56392;51.082;17.080;2023-02-28T01:32:42;1.54;72.17
69281;SHT31;56392;51.082;17.080;2023-02-28T01:38:07;1.47;72.18
69281;SHT31;56392;51.082;17.080;2023-02-28T01:43:32;1.44;71.93
69281;SHT31;56392;51.082;17.080;2023-02-28T01:49:17;1.37;72.82
69281;SHT31;56392;51.082;17.080;2023-02-28T01:54:42;1.43;72.50
69281;SHT31;56392;51.082;17.080;2023-02-28T02:00:11;1.41;71.38
69281;SHT31;56392;51.082;17.080;2023-02-28T02:05:37;1.40;71.59
69281;SHT31;56392;51.082;17.080;2023-02-28T02:11:02;1.36;71.96
69281;SHT31;56392;51.082;17.080;2023-02-28T02:16:34;1.36;72.63
69281;SHT31;56392;51.082;17.080;2023-02-28T02:22:16;1.34;72.79
69281;SHT31;56392;51.082;17.080;2023-02-28T02:28:04;1.31;72.60
69281;SHT31;56392;51.082;17.080;2023-02-28T02:34:11;1.30;73.24
69281;SHT31;56392;51.082;17.080;2023-02-28T02:39:47;1.26;73.31
69281;SHT31;56392;51.082;17.080;2023-02-28T02:45:18;1.26;72.75
69281;SHT31;56392;51.082;17.080;2023-02-28T02:50:46;1.23;72.51
69281;SHT31;56392;51.082;17.080;2023-02-28T02:56:12;1.23;72.73
69281;SHT31;56392;51.082;17.080;2023-02-28T03:01:37;1.16;72.43
69281;SHT31;56392;51.082;17.080;2023-02-28T03:07:03;1.10;72.84
69281;SHT31;56392;51.082;17.080;2023-02-28T03:12:32;1.16;72.26
69281;SHT31;56392;51.082;17.080;2023-02-28T03:18:04;1.22;71.85
69281;SHT31;56392;51.082;17.080;2023-02-28T03:23:37;1.24;72.68
69281;SHT31;56392;51.082;17.080;2023-02-28T03:29:04;1.29;72.48
69281;SHT31;56392;51.082;17.080;2023-02-28T03:34:31;1.23;71.52
69281;SHT31;56392;51.082;17.080;2023-02-28T03:39:59;1.29;71.13
69281;SHT31;56392;51.082;17.080;2023-02-28T03:45:25;1.30;72.86
69281;SHT31;56392;51.082;17.080;2023-02-28T03:50:51;1.30;73.57
69281;SHT31;56392;51.082;17.080;2023-02-28T03:56:20;1.30;72.95
69281;SHT31;56392;51.082;17.080;2023-02-28T04:01:46;1.27;73.11
69281;SHT31;56392;51.082;17.080;2023-02-28T04:07:11;1.19;74.25
69281;SHT31;56392;51.082;17.080;2023-02-28T04:12:35;1.26;71.82
69281;SHT31;56392;51.082;17.080;2023-02-28T04:17:58;1.29;70.26
69281;SHT31;56392;51.082;17.080;2023-02-28T04:23:22;1.33;70.94
69281;SHT31;56392;51.082;17.080;2023-02-28T04:28:46;1.33;72.00
69281;SHT31;56392;51.082;17.080;2023-02-28T04:34:09;1.30;72.76
69281;SHT31;56392;51.082;17.080;2023-02-28T04:39:35;1.27;73.20
69281;SHT31;56392;51.082;17.080;2023-02-28T04:44:59;1.22;73.47
69281;SHT31;56392;51.082;17.080;2023-02-28T04:50:23;1.20;72.84
69281;SHT31;56392;51.082;17.080;2023-02-28T04:55:46;1.22;71.50
69281;SHT31;56392;51.082;17.080;2023-02-28T05:01:22;1.19;71.86
69281;SHT31;56392;51.082;17.080;2023-02-28T05:06:46;1.22;71.93
69281;SHT31;56392;51.082;17.080;2023-02-28T05:12:09;1.16;73.11
69281;SHT31;56392;51.082;17.080;2023-02-28T05:17:34;1.16;72.55
69281;SHT31;56392;51.082;17.080;2023-02-28T05:22:58;1.15;72.30
69281;SHT31;56392;51.082;17.080;2023-02-28T05:28:22;1.13;71.61
69281;SHT31;56392;51.082;17.080;2023-02-28T05:33:47;1.13;72.21
69281;SHT31;56392;51.082;17.080;2023-02-28T05:39:10;1.16;72.83
69281;SHT31;56392;51.082;17.080;2023-02-28T05:44:34;1.10;73.41
69281;SHT31;56392;51.082;17.080;2023-02-28T05:49:58;1.17;72.70
69281;SHT31;56392;51.082;17.080;2023-02-28T05:55:22;1.12;73.22
69281;SHT31;56392;51.082;17.080;2023-02-28T06:00:46;1.13;72.78
69281;SHT31;56392;51.082;17.080;2023-02-28T06:06:13;1.12;71.92
69281;SHT31;56392;51.082;17.080;2023-02-28T06:11:37;1.10;71.63
69281;SHT31;56392;51.082;17.080;2023-02-28T06:17:01;1.16;70.86
69281;SHT31;56392;51.082;17.080;2023-02-28T06:22:26;1.22;69.23
69281;SHT31;56392;51.082;17.080;2023-02-28T06:27:49;1.30;69.51
69281;SHT31;56392;51.082;17.080;2023-02-28T06:33:12;1.39;72.16
69281;SHT31;56392;51.082;17.080;2023-02-28T06:38:37;1.33;71.74
69281;SHT31;56392;51.082;17.080;2023-02-28T06:44:00;1.30;70.46
69281;SHT31;56392;51.082;17.080;2023-02-28T06:49:23;1.33;67.81
69281;SHT31;56392;51.082;17.080;2023-02-28T06:54:48;1.47;66.06
69281;SHT31;56392;51.082;17.080;2023-02-28T07:00:21;1.54;66.26
69281;SHT31;56392;51.082;17.080;2023-02-28T07:05:45;1.60;66.57
69281;SHT31;56392;51.082;17.080;2023-02-28T07:11:09;1.68;64.26
69281;SHT31;56392;51.082;17.080;2023-02-28T07:16:33;1.84;63.76
69281;SHT31;56392;51.082;17.080;2023-02-28T07:21:56;1.94;63.47
69281;SHT31;56392;51.082;17.080;2023-02-28T07:27:21;2.03;62.28
69281;SHT31;56392;51.082;17.080;2023-02-28T07:32:47;2.11;60.48
69281;SHT31;56392;51.082;17.080;2023-02-28T07:38:10;2.26;60.60
69281;SHT31;56392;51.082;17.080;2023-02-28T07:43:37;2.60;58.71
69281;SHT31;56392;51.082;17.080;2023-02-28T07:49:01;2.80;58.60
69281;SHT31;56392;51.082;17.080;2023-02-28T07:54:24;2.94;58.11
69281;SHT31;56392;51.082;17.080;2023-02-28T07:59:49;2.91;58.48
69281;SHT31;56392;51.082;17.080;2023-02-28T08:05:13;3.08;56.33
69281;SHT31;56392;51.082;17.080;2023-02-28T08:10:36;3.35;55.05
69281;SHT31;56392;51.082;17.080;2023-02-28T08:16:02;3.24;52.58
69281;SHT31;56392;51.082;17.080;2023-02-28T08:21:25;3.56;54.24
69281;SHT31;56392;51.082;17.080;2023-02-28T08:26:48;3.65;54.21
69281;SHT31;56392;51.082;17.080;2023-02-28T08:32:13;3.63;53.20
69281;SHT31;56392;51.082;17.080;2023-02-28T08:37:36;3.77;53.66
69281;SHT31;56392;51.082;17.080;2023-02-28T08:42:59;3.97;53.54
69281;SHT31;56392;51.082;17.080;2023-02-28T08:48:24;4.41;52.50
69281;SHT31;56392;51.082;17.080;2023-02-28T08:53:47;4.28;51.10
69281;SHT31;56392;51.082;17.080;2023-02-28T08:59:10;4.10;50.73
69281;SHT31;56392;51.082;17.080;2023-02-28T09:04:35;4.01;51.96
69281;SHT31;56392;51.082;17.080;2023-02-28T09:09:59;3.91;50.51
69281;SHT31;56392;51.082;17.080;2023-02-28T09:15:22;4.00;52.87
69281;SHT31;56392;51.082;17.080;2023-02-28T09:20:46;3.69;50.37
69281;SHT31;56392;51.082;17.080;2023-02-28T09:26:13;3.85;52.48
69281;SHT31;56392;51.082;17.080;2023-02-28T09:31:36;3.97;52.02
69281;SHT31;56392;51.082;17.080;2023-02-28T09:37:01;4.04;51.70
69281;SHT31;56392;51.082;17.080;2023-02-28T09:42:31;4.01;50.83
69281;SHT31;56392;51.082;17.080;2023-02-28T09:47:58;4.24;51.77
69281;SHT31;56392;51.082;17.080;2023-02-28T09:53:29;4.20;51.12
69281;SHT31;56392;51.082;17.080;2023-02-28T09:58:59;4.27;51.14
69281;SHT31;56392;51.082;17.080;2023-02-28T10:04:41;4.17;51.36
69281;SHT31;56392;51.082;17.080;2023-02-28T10:10:17;4.11;50.58
69281;SHT31;56392;51.082;17.080;2023-02-28T10:15:45;4.04;51.26
69281;SHT31;56392;51.082;17.080;2023-02-28T10:21:16;4.27;50.79
69281;SHT31;56392;51.082;17.080;2023-02-28T10:26:43;4.45;51.05
69281;SHT31;56392;51.082;17.080;2023-02-28T10:32:11;4.25;49.60
69281;SHT31;56392;51.082;17.080;2023-02-28T10:37:37;4.40;50.07
69281;SHT31;56392;51.082;17.080;2023-02-28T10:43:04;4.58;50.77
69281;SHT31;56392;51.082;17.080;2023-02-28T10:48:33;4.40;49.04
69281;SHT31;56392;51.082;17.080;2023-02-28T10:53:58;4.30;50.55
69281;SHT31;56392;51.082;17.080;2023-02-28T10:59:29;4.25;50.97
69281;SHT31;56392;51.082;17.080;2023-02-28T11:04:52;4.48;50.85
69281;SHT31;56392;51.082;17.080;2023-02-28T11:10:18;4.62;50.73
69281;SHT31;56392;51.082;17.080;2023-02-28T11:15:51;4.44;50.15
69281;SHT31;56392;51.082;17.080;2023-02-28T11:21:24;4.38;50.71
69281;SHT31;56392;51.082;17.080;2023-02-28T11:26:49;4.37;49.94
69281;SHT31;56392;51.082;17.080;2023-02-28T11:32:18;4.47;51.44
69281;SHT31;56392;51.082;17.080;2023-02-28T11:37:41;4.59;51.72
69281;SHT31;56392;51.082;17.080;2023-02-28T11:43:16;4.64;50.98
69281;SHT31;56392;51.082;17.080;2023-02-28T11:48:50;4.57;51.01
69281;SHT31;56392;51.082;17.080;2023-02-28T11:54:26;4.57;51.02
69281;SHT31;56392;51.082;17.080;2023-02-28T11:59:58;4.52;49.47
69281;SHT31;56392;51.082;17.080;2023-02-28T12:05:30;4.51;50.47
69281;SHT31;56392;51.082;17.080;2023-02-28T12:11:04;4.57;51.07
69281;SHT31;56392;51.082;17.080;2023-02-28T12:16:41;4.57;51.14
69281;SHT31;56392;51.082;17.080;2023-02-28T12:22:30;4.66;51.15
69281;SHT31;56392;51.082;17.080;2023-02-28T12:27:53;4.85;52.07
69281;SHT31;56392;51.082;17.080;2023-02-28T12:33:21;4.92;52.52
69281;SHT31;56392;51.082;17.080;2023-02-28T12:38:50;4.92;53.28
69281;SHT31;56392;51.082;17.080;2023-02-28T12:44:17;4.89;52.77
69281;SHT31;56392;51.082;17.080;2023-02-28T12:49:46;4.82;51.31
69281;SHT31;56392;51.082;17.080;2023-02-28T12:55:15;4.73;52.10
69281;SHT31;56392;51.082;17.080;2023-02-28T13:01:02;4.65;51.20
69281;SHT31;56392;51.082;17.080;2023-02-28T13:06:39;4.75;52.75
69281;SHT31;56392;51.082;17.080;2023-02-28T13:12:14;4.68;52.56
69281;SHT31;56392;51.082;17.080;2023-02-28T13:17:39;4.73;52.15
69281;SHT31;56392;51.082;17.080;2023-02-28T13:23:03;4.71;52.91
69281;SHT31;56392;51.082;17.080;2023-02-28T13:29:20;4.78;53.82
69281;SHT31;56392;51.082;17.080;2023-02-28T13:47:21;4.71;54.46
69281;SHT31;56392;51.082;17.080;2023-02-28T13:52:54;4.68;52.63
69281;SHT31;56392;51.082;17.080;2023-02-28T13:58:41;4.71;53.68
69281;SHT31;56392;51.082;17.080;2023-02-28T14:04:45;4.68;53.23
69281;SHT31;56392;51.082;17.080;2023-02-28T14:10:22;4.71;53.65
69281;SHT31;56392;51.082;17.080;2023-02-28T14:15:57;4.68;53.83
69281;SHT31;56392;51.082;17.080;2023-02-28T14:21:25;4.51;53.68
69281;SHT31;56392;51.082;17.080;2023-02-28T14:27:13;4.64;54.40
69281;SHT31;56392;51.082;17.080;2023-02-28T14:32:44;4.62;53.25
69281;SHT31;56392;51.082;17.080;2023-02-28T14:38:14;4.64;53.47
69281;SHT31;56392;51.082;17.080;2023-02-28T14:43:48;4.64;52.99
69281;SHT31;56392;51.082;17.080;2023-02-28T14:49:19;4.58;52.22
69281;SHT31;56392;51.082;17.080;2023-02-28T14:54:45;4.51;52.80
69281;SHT31;56392;51.082;17.080;2023-02-28T15:00:16;4.58;53.12
69281;SHT31;56392;51.082;17.080;2023-02-28T15:05:39;4.57;52.98
69281;SHT31;56392;51.082;17.080;2023-02-28T15:11:06;4.55;53.33
69281;SHT31;56392;51.082;17.080;2023-02-28T15:16:33;4.48;52.91
69281;SHT31;56392;51.082;17.080;2023-02-28T15:22:00;4.47;53.26
69281;SHT31;56392;51.082;17.080;2023-02-28T15:27:29;4.47;53.57
69281;SHT31;56392;51.082;17.080;2023-02-28T15:33:06;4.45;53.66
69281;SHT31;56392;51.082;17.080;2023-02-28T15:38:34;4.47;53.85
69281;SHT31;56392;51.082;17.080;2023-02-28T15:44:17;4.37;53.16
69281;SHT31;56392;51.082;17.080;2023-02-28T15:49:47;4.37;54.31
69281;SHT31;56392;51.082;17.080;2023-02-28T15:55:18;4.31;54.49
69281;SHT31;56392;51.082;17.080;2023-02-28T16:00:44;4.27;54.25
69281;SHT31;56392;51.082;17.080;2023-02-28T16:06:31;4.20;55.60
69281;SHT31;56392;51.082;17.080;2023-02-28T16:11:55;4.13;56.56
69281;SHT31;56392;51.082;17.080;2023-02-28T16:17:22;4.07;56.41
69281;SHT31;56392;51.082;17.080;2023-02-28T16:22:45;3.97;56.72
69281;SHT31;56392;51.082;17.080;2023-02-28T16:28:14;3.83;58.24
69281;SHT31;56392;51.082;17.080;2023-02-28T16:33:39;3.60;60.14
69281;SHT31;56392;51.082;17.080;2023-02-28T16:39:03;3.38;60.68
69281;SHT31;56392;51.082;17.080;2023-02-28T16:44:30;3.42;59.71
69281;SHT31;56392;51.082;17.080;2023-02-28T16:49:55;3.35;59.15
69281;SHT31;56392;51.082;17.080;2023-02-28T16:55:18;3.36;59.24
69281;SHT31;56392;51.082;17.080;2023-02-28T17:00:43;3.11;59.18
69281;SHT31;56392;51.082;17.080;2023-02-28T17:06:17;3.15;59.12
69281;SHT31;56392;51.082;17.080;2023-02-28T17:11:44;3.09;59.92
69281;SHT31;56392;51.082;17.080;2023-02-28T17:17:10;3.03;61.32
69281;SHT31;56392;51.082;17.080;2023-02-28T17:22:39;2.72;63.33
69281;SHT31;56392;51.082;17.080;2023-02-28T17:28:03;2.63;60.87
69281;SHT31;56392;51.082;17.080;2023-02-28T17:33:26;2.76;61.17
69281;SHT31;56392;51.082;17.080;2023-02-28T17:38:51;2.56;63.27
69281;SHT31;56392;51.082;17.080;2023-02-28T17:44:14;2.35;63.51
69281;SHT31;56392;51.082;17.080;2023-02-28T17:49:37;2.18;65.13
69281;SHT31;56392;51.082;17.080;2023-02-28T17:55:02;2.05;66.08
69281;SHT31;56392;51.082;17.080;2023-02-28T18:00:26;1.89;67.36
69281;SHT31;56392;51.082;17.080;2023-02-28T18:05:49;1.81;66.33
69281;SHT31;56392;51.082;17.080;2023-02-28T18:11:14;1.65;66.66
69281;SHT31;56392;51.082;17.080;2023-02-28T18:16:39;1.64;67.02
69281;SHT31;56392;51.082;17.080;2023-02-28T18:22:02;1.55;66.59
69281;SHT31;56392;51.082;17.080;2023-02-28T18:27:29;1.55;66.16
69281;SHT31;56392;51.082;17.080;2023-02-28T18:32:52;1.44;66.89
69281;SHT31;56392;51.082;17.080;2023-02-28T18:38:17;1.39;67.46
69281;SHT31;56392;51.082;17.080;2023-02-28T18:43:42;1.48;65.99
69281;SHT31;56392;51.082;17.080;2023-02-28T18:49:06;1.51;66.33
69281;SHT31;56392;51.082;17.080;2023-02-28T18:54:29;1.44;67.16
69281;SHT31;56392;51.082;17.080;2023-02-28T18:59:54;1.29;68.13
69281;SHT31;56392;51.082;17.080;2023-02-28T19:05:18;1.09;69.45
69281;SHT31;56392;51.082;17.080;2023-02-28T19:10:44;1.07;68.31
69281;SHT31;56392;51.082;17.080;2023-02-28T19:16:10;1.00;69.36
69281;SHT31;56392;51.082;17.080;2023-02-28T19:21:34;0.93;68.87
69281;SHT31;56392;51.082;17.080;2023-02-28T19:26:57;0.86;69.99
69281;SHT31;56392;51.082;17.080;2023-02-28T19:32:22;0.82;69.56
69281;SHT31;56392;51.082;17.080;2023-02-28T19:37:48;0.79;68.74
69281;SHT31;56392;51.082;17.080;2023-02-28T19:43:13;0.73;70.05
69281;SHT31;56392;51.082;17.080;2023-02-28T19:48:38;0.71;69.65
69281;SHT31;56392;51.082;17.080;2023-02-28T19:54:03;0.59;70.67
69281;SHT31;56392;51.082;17.080;2023-02-28T19:59:27;0.52;70.44
69281;SHT31;56392;51.082;17.080;2023-02-28T20:04:54;0.50;70.52
69281;SHT31;56392;51.082;17.080;2023-02-28T20:10:18;0.50;70.13
69281;SHT31;56392;51.082;17.080;2023-02-28T20:15:42;0.45;70.39
69281;SHT31;56392;51.082;17.080;2023-02-28T20:21:08;0.40;70.48
69281;SHT31;56392;51.082;17.080;2023-02-28T20:26:31;0.37;70.77
69281;SHT31;56392;51.082;17.080;2023-02-28T20:31:54;0.30;71.35
69281;SHT31;56392;51.082;17.080;2023-02-28T20:37:20;0.32;71.04
69281;SHT31;56392;51.082;17.080;2023-02-28T20:42:43;0.32;70.94
69281;SHT31;56392;51.082;17.080;2023-02-28T20:48:06;0.27;71.61
69281;SHT31;56392;51.082;17.080;2023-02-28T20:53:32;0.21;71.55
69281;SHT31;56392;51.082;17.080;2023-02-28T20:58:55;0.17;71.29
69281;SHT31;56392;51.082;17.080;2023-02-28T21:04:18;0.13;72.20
69281;SHT31;56392;51.082;17.080;2023-02-28T21:09:43;0.14;72.86
69281;SHT31;56392;51.082;17.080;2023-02-28T21:15:08;0.06;72.91
69281;SHT31;56392;51.082;17.080;2023-02-28T21:20:31;-0.01;73.02
69281;SHT31;56392;51.082;17.080;2023-02-28T21:26:00;-0.10;73.02
69281;SHT31;56392;51.082;17.080;2023-02-28T21:31:25;-0.13;72.85
69281;SHT31;56392;51.082;17.080;2023-02-28T21:36:49;-0.18;72.76
69281;SHT31;56392;51.082;17.080;2023-02-28T21:42:13;-0.22;73.37
69281;SHT31;56392;51.082;17.080;2023-02-28T21:47:36;-0.21;73.27
69281;SHT31;56392;51.082;17.080;2023-02-28T21:52:59;-0.30;73.17
69281;SHT31;56392;51.082;17.080;2023-02-28T21:58:24;-0.31;72.86
69281;SHT31;56392;51.082;17.080;2023-02-28T22:03:48;-0.31;73.40
69281;SHT31;56392;51.082;17.080;2023-02-28T22:09:12;-0.28;73.87
69281;SHT31;56392;51.082;17.080;2023-02-28T22:14:37;-0.34;73.21
69281;SHT31;56392;51.082;17.080;2023-02-28T22:20:00;-0.30;73.28
69281;SHT31;56392;51.082;17.080;2023-02-28T22:25:24;-0.34;72.83
69281;SHT31;56392;51.082;17.080;2023-02-28T22:30:49;-0.45;72.80
69281;SHT31;56392;51.082;17.080;2023-02-28T22:36:14;-0.47;72.93
69281;SHT31;56392;51.082;17.080;2023-02-28T22:41:38;-0.52;72.86
69281;SHT31;56392;51.082;17.080;2023-02-28T22:47:02;-0.55;73.35
69281;SHT31;56392;51.082;17.080;2023-02-28T22:52:25;-0.64;73.32
69281;SHT31;56392;51.082;17.080;2023-02-28T22:57:48;-0.76;73.55
69281;SHT31;56392;51.082;17.080;2023-02-28T23:03:13;-0.81;73.95
69281;SHT31;56392;51.082;17.080;2023-02-28T23:08:36;-0.83;74.44
69281;SHT31;56392;51.082;17.080;2023-02-28T23:13:59;-0.89;74.61
69281;SHT31;56392;51.082;17.080;2023-02-28T23:19:26;-0.95;74.48
69281;SHT31;56392;51.082;17.080;2023-02-28T23:24:50;-1.00;74.33
69281;SHT31;56392;51.082;17.080;2023-02-28T23:30:14;-1.03;74.69
69281;SHT31;56392;51.082;17.080;2023-02-28T23:35:38;-1.12;75.09
69281;SHT31;56392;51.082;17.080;2023-02-28T23:41:05;-1.19;75.21
69281;SHT31;56392;51.082;17.080;2023-02-28T23:46:28;-1.14;74.88
69281;SHT31;56392;51.082;17.080;2023-02-28T23:51:54;-1.13;75.00
69281;SHT31;56392;51.082;17.080;2023-02-28T23:57:17;-1.16;75.10
